sensor_id;sensor_type;location;lat;lon;timestamp;temperature;humidity
53146;DHT22;39042;53.150;5.898;2022-07-22T03:01:25;15.20;99.90
53146;DHT22;39042;53.150;5.898;2022-07-22T03:03:54;15.30;99.90
53146;DHT22;39042;53.150;5.898;2022-07-22T03:06:22;15.20;99.90
53146;DHT22;39042;53.150;5.898;2022-07-22T03:08:59;15.20;99.90
53146;DHT22;39042;53.150;5.898;2022-07-22T03:11:25;15.20;99.90
53146;DHT22;39042;53.150;5.898;2022-07-22T03:13:51;15.20;99.90
53146;DHT22;39042;53.150;5.898;2022-07-22T03:16:18;15.20;99.90
53146;DHT22;39042;53.150;5.898;2022-07-22T03:18:44;15.20;99.90
53146;DHT22;39042;53.150;5.898;2022-07-22T03:21:11;15.20;99.90
53146;DHT22;39042;53.150;5.898;2022-07-22T03:23:37;15.20;99.90
53146;DHT22;39042;53.150;5.898;2022-07-22T03:26:03;15.20;99.90
53146;DHT22;39042;53.150;5.898;2022-07-22T03:28:29;15.20;99.90
53146;DHT22;39042;53.150;5.898;2022-07-22T03:30:55;15.20;99.90
53146;DHT22;39042;53.150;5.898;2022-07-22T03:33:20;15.20;99.90
53146;DHT22;39042;53.150;5.898;2022-07-22T03:35:46;15.20;99.90
53146;DHT22;39042;53.150;5.898;2022-07-22T03:38:13;15.20;99.90
53146;DHT22;39042;53.150;5.898;2022-07-22T03:40:39;15.20;99.90
53146;DHT22;39042;53.150;5.898;2022-07-22T03:43:05;15.20;99.90
53146;DHT22;39042;53.150;5.898;2022-07-22T03:45:31;15.10;99.90
53146;DHT22;39042;53.150;5.898;2022-07-22T03:47:57;15.10;99.90
53146;DHT22;39042;53.150;5.898;2022-07-22T03:50:25;15.10;99.90
53146;DHT22;39042;53.150;5.898;2022-07-22T03:52:51;15.20;99.90
53146;DHT22;39042;53.150;5.898;2022-07-22T03:55:17;15.10;99.90
53146;DHT22;39042;53.150;5.898;2022-07-22T03:57:44;15.20;99.90
53146;DHT22;39042;53.150;5.898;2022-07-22T04:00:30;15.20;99.90
53146;DHT22;39042;53.150;5.898;2022-07-22T04:03:02;15.20;99.90
53146;DHT22;39042;53.150;5.898;2022-07-22T04:05:51;15.20;99.90
53146;DHT22;39042;53.150;5.898;2022-07-22T04:08:27;15.20;99.90
53146;DHT22;39042;53.150;5.898;2022-07-22T04:10:52;15.20;99.90
53146;DHT22;39042;53.150;5.898;2022-07-22T04:13:18;15.20;99.90
53146;DHT22;39042;53.150;5.898;2022-07-22T04:15:49;15.20;99.90
53146;DHT22;39042;53.150;5.898;2022-07-22T04:18:14;15.20;99.90
53146;DHT22;39042;53.150;5.898;2022-07-22T04:20:43;15.20;99.90
53146;DHT22;39042;53.150;5.898;2022-07-22T04:23:27;15.20;99.90
53146;DHT22;39042;53.150;5.898;2022-07-22T04:26:03;15.20;99.90
53146;DHT22;39042;53.150;5.898;2022-07-22T04:28:32;15.20;99.90
53146;DHT22;39042;53.150;5.898;2022-07-22T04:30:57;15.20;99.90
53146;DHT22;39042;53.150;5.898;2022-07-22T04:33:23;15.30;99.90
53146;DHT22;39042;53.150;5.898;2022-07-22T04:35:50;15.30;99.90
53146;DHT22;39042;53.150;5.898;2022-07-22T04:38:17;15.20;99.90
53146;DHT22;39042;53.150;5.898;2022-07-22T04:40:51;15.30;99.90
53146;DHT22;39042;53.150;5.898;2022-07-22T04:43:17;15.30;99.90
53146;DHT22;39042;53.150;5.898;2022-07-22T04:45:43;15.30;99.90
53146;DHT22;39042;53.150;5.898;2022-07-22T04:48:08;15.30;99.90
53146;DHT22;39042;53.150;5.898;2022-07-22T04:50:37;15.30;99.90
53146;DHT22;39042;53.150;5.898;2022-07-22T04:53:03;15.30;99.90
53146;DHT22;39042;53.150;5.898;2022-07-22T04:55:29;15.40;99.90
53146;DHT22;39042;53.150;5.898;2022-07-22T04:57:55;15.40;99.90
53146;DHT22;39042;53.150;5.898;2022-07-22T05:00:21;15.40;99.90
53146;DHT22;39042;53.150;5.898;2022-07-22T05:02:52;15.40;99.90
53146;DHT22;39042;53.150;5.898;2022-07-22T05:05:19;15.40;99.90
53146;DHT22;39042;53.150;5.898;2022-07-22T05:07:45;15.50;99.90
53146;DHT22;39042;53.150;5.898;2022-07-22T05:10:10;15.50;99.90
53146;DHT22;39042;53.150;5.898;2022-07-22T05:12:36;15.60;99.90
53146;DHT22;39042;53.150;5.898;2022-07-22T05:15:02;15.60;99.90
53146;DHT22;39042;53.150;5.898;2022-07-22T05:17:29;15.60;99.90
53146;DHT22;39042;53.150;5.898;2022-07-22T05:20:14;15.60;99.90
53146;DHT22;39042;53.150;5.898;2022-07-22T05:22:42;15.60;99.90
53146;DHT22;39042;53.150;5.898;2022-07-22T05:25:13;15.60;99.90
53146;DHT22;39042;53.150;5.898;2022-07-22T05:27:49;15.60;99.90
53146;DHT22;39042;53.150;5.898;2022-07-22T05:30:17;15.70;99.90
53146;DHT22;39042;53.150;5.898;2022-07-22T05:32:42;15.70;99.90
53146;DHT22;39042;53.150;5.898;2022-07-22T05:35:08;15.70;99.90
53146;DHT22;39042;53.150;5.898;2022-07-22T05:37:35;15.70;99.90
53146;DHT22;39042;53.150;5.898;2022-07-22T05:40:01;15.80;99.90
53146;DHT22;39042;53.150;5.898;2022-07-22T05:42:27;15.80;99.90
53146;DHT22;39042;53.150;5.898;2022-07-22T05:44:53;15.80;99.90
53146;DHT22;39042;53.150;5.898;2022-07-22T05:47:18;15.80;99.90
53146;DHT22;39042;53.150;5.898;2022-07-22T05:49:44;15.80;99.90
53146;DHT22;39042;53.150;5.898;2022-07-22T05:52:10;15.80;99.90
53146;DHT22;39042;53.150;5.898;2022-07-22T05:54:36;15.90;99.90
53146;DHT22;39042;53.150;5.898;2022-07-22T05:57:02;15.90;99.90
53146;DHT22;39042;53.150;5.898;2022-07-22T05:59:28;15.90;99.90
53146;DHT22;39042;53.150;5.898;2022-07-22T06:01:54;15.90;99.90
53146;DHT22;39042;53.150;5.898;2022-07-22T06:04:35;15.90;99.90
53146;DHT22;39042;53.150;5.898;2022-07-22T06:07:01;16.00;99.90
53146;DHT22;39042;53.150;5.898;2022-07-22T06:09:27;16.00;99.90
53146;DHT22;39042;53.150;5.898;2022-07-22T06:11:52;16.00;99.90
53146;DHT22;39042;53.150;5.898;2022-07-22T06:14:18;16.10;99.90
53146;DHT22;39042;53.150;5.898;2022-07-22T06:16:44;16.10;99.90
53146;DHT22;39042;53.150;5.898;2022-07-22T06:19:10;16.20;99.90
53146;DHT22;39042;53.150;5.898;2022-07-22T06:21:35;16.30;99.90
53146;DHT22;39042;53.150;5.898;2022-07-22T06:24:02;16.30;99.90
53146;DHT22;39042;53.150;5.898;2022-07-22T06:26:29;16.40;99.90
53146;DHT22;39042;53.150;5.898;2022-07-22T06:28:54;16.40;99.90
53146;DHT22;39042;53.150;5.898;2022-07-22T06:31:20;16.50;99.90
53146;DHT22;39042;53.150;5.898;2022-07-22T06:33:46;16.50;99.90
53146;DHT22;39042;53.150;5.898;2022-07-22T06:36:12;16.50;99.90
53146;DHT22;39042;53.150;5.898;2022-07-22T06:38:39;16.50;99.90
53146;DHT22;39042;53.150;5.898;2022-07-22T06:41:31;16.60;99.90
53146;DHT22;39042;53.150;5.898;2022-07-22T06:44:19;16.60;99.90
53146;DHT22;39042;53.150;5.898;2022-07-22T06:47:05;16.70;99.90
53146;DHT22;39042;53.150;5.898;2022-07-22T06:49:31;16.70;99.90
53146;DHT22;39042;53.150;5.898;2022-07-22T06:51:56;16.80;99.90
53146;DHT22;39042;53.150;5.898;2022-07-22T06:54:22;16.90;99.90
53146;DHT22;39042;53.150;5.898;2022-07-22T06:56:50;17.00;99.90
53146;DHT22;39042;53.150;5.898;2022-07-22T06:59:20;17.10;99.90
53146;DHT22;39042;53.150;5.898;2022-07-22T07:01:46;17.20;99.90
53146;DHT22;39042;53.150;5.898;2022-07-22T07:04:13;17.30;99.90
53146;DHT22;39042;53.150;5.898;2022-07-22T07:06:39;17.40;99.90
53146;DHT22;39042;53.150;5.898;2022-07-22T07:09:28;17.40;99.90
53146;DHT22;39042;53.150;5.898;2022-07-22T07:12:02;17.40;99.90
53146;DHT22;39042;53.150;5.898;2022-07-22T07:14:51;17.30;99.90
53146;DHT22;39042;53.150;5.898;2022-07-22T07:17:17;17.30;99.90
53146;DHT22;39042;53.150;5.898;2022-07-22T07:19:43;17.30;99.90
53146;DHT22;39042;53.150;5.898;2022-07-22T07:22:08;17.30;99.90
53146;DHT22;39042;53.150;5.898;2022-07-22T07:24:34;17.30;99.90
53146;DHT22;39042;53.150;5.898;2022-07-22T07:27:00;17.20;99.90
53146;DHT22;39042;53.150;5.898;2022-07-22T07:29:26;17.20;99.90
53146;DHT22;39042;53.150;5.898;2022-07-22T07:31:52;17.10;99.90
53146;DHT22;39042;53.150;5.898;2022-07-22T07:34:18;17.10;99.90
53146;DHT22;39042;53.150;5.898;2022-07-22T07:36:43;17.00;99.90
53146;DHT22;39042;53.150;5.898;2022-07-22T07:39:12;17.00;99.90
53146;DHT22;39042;53.150;5.898;2022-07-22T07:41:39;17.00;99.90
53146;DHT22;39042;53.150;5.898;2022-07-22T07:44:05;17.00;99.90
53146;DHT22;39042;53.150;5.898;2022-07-22T07:46:31;17.00;99.90
53146;DHT22;39042;53.150;5.898;2022-07-22T07:48:56;17.10;99.90
53146;DHT22;39042;53.150;5.898;2022-07-22T07:51:22;17.10;99.90
53146;DHT22;39042;53.150;5.898;2022-07-22T07:53:48;17.20;99.90
53146;DHT22;39042;53.150;5.898;2022-07-22T07:56:14;17.30;99.90
53146;DHT22;39042;53.150;5.898;2022-07-22T07:58:40;17.40;99.90
53146;DHT22;39042;53.150;5.898;2022-07-22T08:01:06;17.50;99.90
53146;DHT22;39042;53.150;5.898;2022-07-22T08:03:32;17.70;99.90
53146;DHT22;39042;53.150;5.898;2022-07-22T08:05:58;17.80;99.90
53146;DHT22;39042;53.150;5.898;2022-07-22T08:08:27;17.90;99.90
53146;DHT22;39042;53.150;5.898;2022-07-22T08:10:54;18.00;99.90
53146;DHT22;39042;53.150;5.898;2022-07-22T08:13:38;18.00;99.90
53146;DHT22;39042;53.150;5.898;2022-07-22T08:16:27;18.00;99.90
53146;DHT22;39042;53.150;5.898;2022-07-22T08:18:53;18.00;99.90
53146;DHT22;39042;53.150;5.898;2022-07-22T08:21:18;18.10;99.90
53146;DHT22;39042;53.150;5.898;2022-07-22T08:23:52;18.10;99.90
53146;DHT22;39042;53.150;5.898;2022-07-22T08:26:18;18.20;99.90
53146;DHT22;39042;53.150;5.898;2022-07-22T08:28:44;18.20;99.90
53146;DHT22;39042;53.150;5.898;2022-07-22T08:31:09;18.30;99.90
53146;DHT22;39042;53.150;5.898;2022-07-22T08:33:36;18.30;99.90
53146;DHT22;39042;53.150;5.898;2022-07-22T08:36:02;18.30;99.90
53146;DHT22;39042;53.150;5.898;2022-07-22T08:38:30;18.40;99.90
53146;DHT22;39042;53.150;5.898;2022-07-22T08:40:56;18.40;99.90
53146;DHT22;39042;53.150;5.898;2022-07-22T08:43:23;18.40;99.90
53146;DHT22;39042;53.150;5.898;2022-07-22T08:45:48;18.40;99.90
53146;DHT22;39042;53.150;5.898;2022-07-22T08:48:15;18.30;99.90
53146;DHT22;39042;53.150;5.898;2022-07-22T08:50:50;18.30;99.90
53146;DHT22;39042;53.150;5.898;2022-07-22T08:53:30;18.40;99.90
53146;DHT22;39042;53.150;5.898;2022-07-22T08:56:01;18.40;99.90
53146;DHT22;39042;53.150;5.898;2022-07-22T08:58:27;18.50;99.90
53146;DHT22;39042;53.150;5.898;2022-07-22T09:01:07;18.60;99.90
53146;DHT22;39042;53.150;5.898;2022-07-22T09:03:35;18.70;99.90
53146;DHT22;39042;53.150;5.898;2022-07-22T09:06:08;18.70;99.90
53146;DHT22;39042;53.150;5.898;2022-07-22T09:08:49;18.70;99.90
53146;DHT22;39042;53.150;5.898;2022-07-22T09:11:35;18.70;99.90
53146;DHT22;39042;53.150;5.898;2022-07-22T09:14:44;18.70;99.90
53146;DHT22;39042;53.150;5.898;2022-07-22T09:17:34;18.70;99.90
53146;DHT22;39042;53.150;5.898;2022-07-22T09:20:29;18.80;99.90
53146;DHT22;39042;53.150;5.898;2022-07-22T09:23:15;18.90;99.90
53146;DHT22;39042;53.150;5.898;2022-07-22T09:25:43;18.90;99.90
53146;DHT22;39042;53.150;5.898;2022-07-22T09:28:28;18.80;99.90
53146;DHT22;39042;53.150;5.898;2022-07-22T09:31:30;18.60;99.90
53146;DHT22;39042;53.150;5.898;2022-07-22T09:34:05;18.50;99.90
53146;DHT22;39042;53.150;5.898;2022-07-22T09:36:31;18.40;99.90
53146;DHT22;39042;53.150;5.898;2022-07-22T09:38:57;18.40;99.90
53146;DHT22;39042;53.150;5.898;2022-07-22T09:41:23;18.60;99.90
53146;DHT22;39042;53.150;5.898;2022-07-22T09:43:49;18.60;99.90
53146;DHT22;39042;53.150;5.898;2022-07-22T09:46:15;18.90;99.90
53146;DHT22;39042;53.150;5.898;2022-07-22T09:49:05;19.10;99.90
53146;DHT22;39042;53.150;5.898;2022-07-22T09:51:39;19.40;99.90
53146;DHT22;39042;53.150;5.898;2022-07-22T09:54:10;19.50;99.90
53146;DHT22;39042;53.150;5.898;2022-07-22T09:56:37;19.40;99.90
53146;DHT22;39042;53.150;5.898;2022-07-22T09:59:04;19.50;99.90
53146;DHT22;39042;53.150;5.898;2022-07-22T10:01:42;19.40;99.90
53146;DHT22;39042;53.150;5.898;2022-07-22T10:04:08;19.20;99.90
53146;DHT22;39042;53.150;5.898;2022-07-22T10:06:36;19.00;99.90
53146;DHT22;39042;53.150;5.898;2022-07-22T10:09:04;19.00;99.90
53146;DHT22;39042;53.150;5.898;2022-07-22T10:11:31;18.90;99.90
53146;DHT22;39042;53.150;5.898;2022-07-22T10:13:56;18.80;99.90
53146;DHT22;39042;53.150;5.898;2022-07-22T15:14:37;19.30;99.90
53146;DHT22;39042;53.150;5.898;2022-07-22T15:17:03;19.20;99.90
53146;DHT22;39042;53.150;5.898;2022-07-22T15:19:28;19.20;99.90
53146;DHT22;39042;53.150;5.898;2022-07-22T15:21:54;19.30;99.90
53146;DHT22;39042;53.150;5.898;2022-07-22T15:24:21;19.20;99.90
53146;DHT22;39042;53.150;5.898;2022-07-22T15:26:47;19.20;99.90
53146;DHT22;39042;53.150;5.898;2022-07-22T15:31:39;19.20;99.90
53146;DHT22;39042;53.150;5.898;2022-07-22T15:34:05;19.20;99.90
53146;DHT22;39042;53.150;5.898;2022-07-22T15:36:30;19.10;99.90
53146;DHT22;39042;53.150;5.898;2022-07-22T15:38:56;19.10;99.90
53146;DHT22;39042;53.150;5.898;2022-07-22T15:41:22;19.00;99.90
53146;DHT22;39042;53.150;5.898;2022-07-22T15:43:48;19.00;99.90
53146;DHT22;39042;53.150;5.898;2022-07-22T15:46:14;19.00;99.90
53146;DHT22;39042;53.150;5.898;2022-07-22T15:48:39;19.00;99.90
53146;DHT22;39042;53.150;5.898;2022-07-22T15:51:08;19.00;99.90
53146;DHT22;39042;53.150;5.898;2022-07-22T15:53:34;19.00;99.90
53146;DHT22;39042;53.150;5.898;2022-07-22T15:56:00;19.00;99.90
53146;DHT22;39042;53.150;5.898;2022-07-22T15:58:26;19.00;99.90
53146;DHT22;39042;53.150;5.898;2022-07-22T16:01:10;19.00;99.90
53146;DHT22;39042;53.150;5.898;2022-07-22T16:03:36;19.00;99.90
53146;DHT22;39042;53.150;5.898;2022-07-22T16:06:02;19.10;99.90
53146;DHT22;39042;53.150;5.898;2022-07-22T16:08:27;19.10;99.90
53146;DHT22;39042;53.150;5.898;2022-07-22T16:10:53;19.00;99.90
53146;DHT22;39042;53.150;5.898;2022-07-22T16:13:19;19.10;99.90
53146;DHT22;39042;53.150;5.898;2022-07-22T16:15:44;19.00;99.90
53146;DHT22;39042;53.150;5.898;2022-07-22T16:18:10;19.00;99.90
53146;DHT22;39042;53.150;5.898;2022-07-22T16:20:42;19.00;99.90
53146;DHT22;39042;53.150;5.898;2022-07-22T16:23:08;19.00;99.90
53146;DHT22;39042;53.150;5.898;2022-07-22T16:25:34;19.00;99.90
53146;DHT22;39042;53.150;5.898;2022-07-22T16:28:00;18.90;99.90
53146;DHT22;39042;53.150;5.898;2022-07-22T16:30:25;19.00;99.90
53146;DHT22;39042;53.150;5.898;2022-07-22T16:32:51;19.00;99.90
53146;DHT22;39042;53.150;5.898;2022-07-22T16:35:17;19.00;99.90
53146;DHT22;39042;53.150;5.898;2022-07-22T16:37:42;19.00;99.90
53146;DHT22;39042;53.150;5.898;2022-07-22T16:40:08;19.00;99.90
53146;DHT22;39042;53.150;5.898;2022-07-22T16:42:34;19.00;99.90
53146;DHT22;39042;53.150;5.898;2022-07-22T16:45:00;19.00;99.90
53146;DHT22;39042;53.150;5.898;2022-07-22T16:47:25;19.00;99.90
53146;DHT22;39042;53.150;5.898;2022-07-22T16:49:52;18.90;99.90
53146;DHT22;39042;53.150;5.898;2022-07-22T16:52:18;18.90;99.90
53146;DHT22;39042;53.150;5.898;2022-07-22T16:54:43;18.90;99.90
53146;DHT22;39042;53.150;5.898;2022-07-22T16:57:09;18.80;99.90
53146;DHT22;39042;53.150;5.898;2022-07-22T16:59:35;18.80;99.90
53146;DHT22;39042;53.150;5.898;2022-07-22T17:02:00;18.70;99.90
53146;DHT22;39042;53.150;5.898;2022-07-22T17:04:26;18.70;99.90
53146;DHT22;39042;53.150;5.898;2022-07-22T17:06:52;18.60;99.90
53146;DHT22;39042;53.150;5.898;2022-07-22T17:09:18;18.60;99.90
53146;DHT22;39042;53.150;5.898;2022-07-22T17:11:44;18.50;99.90
53146;DHT22;39042;53.150;5.898;2022-07-22T17:14:09;18.40;99.90
53146;DHT22;39042;53.150;5.898;2022-07-22T17:16:36;18.30;99.90
53146;DHT22;39042;53.150;5.898;2022-07-22T17:19:02;18.30;99.90
53146;DHT22;39042;53.150;5.898;2022-07-22T17:21:27;18.20;99.90
53146;DHT22;39042;53.150;5.898;2022-07-22T17:23:53;18.10;99.90
53146;DHT22;39042;53.150;5.898;2022-07-22T17:26:19;18.10;99.90
53146;DHT22;39042;53.150;5.898;2022-07-22T17:28:46;18.10;99.90
53146;DHT22;39042;53.150;5.898;2022-07-22T17:31:12;18.10;99.90
53146;DHT22;39042;53.150;5.898;2022-07-22T17:33:37;18.10;99.90
53146;DHT22;39042;53.150;5.898;2022-07-22T17:36:03;18.10;99.90
53146;DHT22;39042;53.150;5.898;2022-07-22T17:38:29;18.10;99.90
53146;DHT22;39042;53.150;5.898;2022-07-22T17:40:54;18.00;99.90
53146;DHT22;39042;53.150;5.898;2022-07-22T17:43:20;18.00;99.90
53146;DHT22;39042;53.150;5.898;2022-07-22T17:45:46;18.00;99.90
53146;DHT22;39042;53.150;5.898;2022-07-22T17:48:12;17.90;99.90
53146;DHT22;39042;53.150;5.898;2022-07-22T17:50:38;17.90;99.90
53146;DHT22;39042;53.150;5.898;2022-07-22T17:53:07;17.90;99.90
53146;DHT22;39042;53.150;5.898;2022-07-22T17:55:33;17.80;99.90
53146;DHT22;39042;53.150;5.898;2022-07-22T17:57:59;17.80;99.90
53146;DHT22;39042;53.150;5.898;2022-07-22T18:00:25;17.80;99.90
53146;DHT22;39042;53.150;5.898;2022-07-22T18:02:50;17.80;99.90
53146;DHT22;39042;53.150;5.898;2022-07-22T18:05:16;17.70;99.90
53146;DHT22;39042;53.150;5.898;2022-07-22T18:07:42;17.70;99.90
53146;DHT22;39042;53.150;5.898;2022-07-22T18:10:08;17.70;99.90
53146;DHT22;39042;53.150;5.898;2022-07-22T18:12:34;17.70;99.90
53146;DHT22;39042;53.150;5.898;2022-07-22T18:14:59;17.70;99.90
53146;DHT22;39042;53.150;5.898;2022-07-22T18:17:27;17.70;99.90
53146;DHT22;39042;53.150;5.898;2022-07-22T18:19:53;17.60;99.90
53146;DHT22;39042;53.150;5.898;2022-07-22T18:22:19;17.50;99.90
53146;DHT22;39042;53.150;5.898;2022-07-22T18:24:44;17.50;99.90
53146;DHT22;39042;53.150;5.898;2022-07-22T18:27:10;17.50;99.90
53146;DHT22;39042;53.150;5.898;2022-07-22T18:29:36;17.50;99.90
53146;DHT22;39042;53.150;5.898;2022-07-22T18:32:02;17.40;99.90
53146;DHT22;39042;53.150;5.898;2022-07-22T18:34:28;17.40;99.90
53146;DHT22;39042;53.150;5.898;2022-07-22T18:36:55;17.40;99.90
53146;DHT22;39042;53.150;5.898;2022-07-22T18:39:21;17.30;99.90
53146;DHT22;39042;53.150;5.898;2022-07-22T18:41:46;17.30;99.90
53146;DHT22;39042;53.150;5.898;2022-07-22T18:44:12;17.30;99.90
53146;DHT22;39042;53.150;5.898;2022-07-22T18:46:38;17.30;99.90
53146;DHT22;39042;53.150;5.898;2022-07-22T18:49:04;17.20;99.90
53146;DHT22;39042;53.150;5.898;2022-07-22T18:51:30;17.20;99.90
53146;DHT22;39042;53.150;5.898;2022-07-22T18:53:56;17.20;99.90
53146;DHT22;39042;53.150;5.898;2022-07-22T18:56:21;17.10;99.90
53146;DHT22;39042;53.150;5.898;2022-07-22T18:58:47;17.10;99.90
53146;DHT22;39042;53.150;5.898;2022-07-22T19:01:13;17.00;99.90
53146;DHT22;39042;53.150;5.898;2022-07-22T19:03:38;17.00;99.90
53146;DHT22;39042;53.150;5.898;2022-07-22T19:06:04;17.00;99.90
53146;DHT22;39042;53.150;5.898;2022-07-22T19:08:30;17.00;99.90
53146;DHT22;39042;53.150;5.898;2022-07-22T19:10:55;16.90;99.90
53146;DHT22;39042;53.150;5.898;2022-07-22T19:13:21;16.80;99.90
53146;DHT22;39042;53.150;5.898;2022-07-22T19:15:47;16.80;99.90
53146;DHT22;39042;53.150;5.898;2022-07-22T19:18:12;16.70;99.90
53146;DHT22;39042;53.150;5.898;2022-07-22T19:20:39;16.70;99.90
53146;DHT22;39042;53.150;5.898;2022-07-22T19:23:06;16.70;99.90
53146;DHT22;39042;53.150;5.898;2022-07-22T19:25:32;16.60;99.90
53146;DHT22;39042;53.150;5.898;2022-07-22T19:27:58;16.60;99.90
53146;DHT22;39042;53.150;5.898;2022-07-22T19:30:23;16.50;99.90
53146;DHT22;39042;53.150;5.898;2022-07-22T19:32:49;16.50;99.90
53146;DHT22;39042;53.150;5.898;2022-07-22T19:35:15;16.40;99.90
53146;DHT22;39042;53.150;5.898;2022-07-22T19:37:40;16.40;99.90
53146;DHT22;39042;53.150;5.898;2022-07-22T19:40:06;16.30;99.90
53146;DHT22;39042;53.150;5.898;2022-07-22T19:42:32;16.30;99.90
53146;DHT22;39042;53.150;5.898;2022-07-22T19:44:58;16.20;99.90
53146;DHT22;39042;53.150;5.898;2022-07-22T19:47:24;16.20;99.90
53146;DHT22;39042;53.150;5.898;2022-07-22T19:49:49;16.10;99.90
53146;DHT22;39042;53.150;5.898;2022-07-22T19:52:15;16.10;99.90
53146;DHT22;39042;53.150;5.898;2022-07-22T19:54:41;16.00;99.90
53146;DHT22;39042;53.150;5.898;2022-07-22T19:57:06;16.00;99.90
53146;DHT22;39042;53.150;5.898;2022-07-22T19:59:32;15.90;99.90
53146;DHT22;39042;53.150;5.898;2022-07-22T20:01:58;15.90;99.90
53146;DHT22;39042;53.150;5.898;2022-07-22T20:04:23;15.80;99.90
53146;DHT22;39042;53.150;5.898;2022-07-22T20:06:49;15.80;99.90
53146;DHT22;39042;53.150;5.898;2022-07-22T20:09:14;15.70;99.90
53146;DHT22;39042;53.150;5.898;2022-07-22T20:11:40;15.60;99.90
53146;DHT22;39042;53.150;5.898;2022-07-22T20:14:06;15.60;99.90
53146;DHT22;39042;53.150;5.898;2022-07-22T20:16:33;15.60;99.90
53146;DHT22;39042;53.150;5.898;2022-07-22T20:19:02;15.50;99.90
53146;DHT22;39042;53.150;5.898;2022-07-22T20:21:27;15.50;99.90
53146;DHT22;39042;53.150;5.898;2022-07-22T20:23:53;15.40;99.90
53146;DHT22;39042;53.150;5.898;2022-07-22T20:26:19;15.40;99.90
53146;DHT22;39042;53.150;5.898;2022-07-22T20:28:45;15.30;99.90
53146;DHT22;39042;53.150;5.898;2022-07-22T20:31:10;15.20;99.90
53146;DHT22;39042;53.150;5.898;2022-07-22T20:33:36;15.10;99.90
53146;DHT22;39042;53.150;5.898;2022-07-22T20:36:02;15.10;99.90
53146;DHT22;39042;53.150;5.898;2022-07-22T20:38:27;15.10;99.90
53146;DHT22;39042;53.150;5.898;2022-07-22T20:40:53;15.00;99.90
53146;DHT22;39042;53.150;5.898;2022-07-22T20:43:19;14.90;99.90
53146;DHT22;39042;53.150;5.898;2022-07-22T20:45:44;14.90;99.90
53146;DHT22;39042;53.150;5.898;2022-07-22T20:48:10;14.80;99.90
53146;DHT22;39042;53.150;5.898;2022-07-22T20:50:36;14.70;99.90
53146;DHT22;39042;53.150;5.898;2022-07-22T20:53:02;14.70;99.90
53146;DHT22;39042;53.150;5.898;2022-07-22T20:55:28;14.60;99.90
53146;DHT22;39042;53.150;5.898;2022-07-22T20:57:55;14.50;99.90
53146;DHT22;39042;53.150;5.898;2022-07-22T21:00:20;14.50;99.90
53146;DHT22;39042;53.150;5.898;2022-07-22T21:02:46;14.40;99.90
53146;DHT22;39042;53.150;5.898;2022-07-22T21:05:12;14.40;99.90
53146;DHT22;39042;53.150;5.898;2022-07-22T21:07:37;14.30;99.90
53146;DHT22;39042;53.150;5.898;2022-07-22T21:10:03;14.20;99.90
53146;DHT22;39042;53.150;5.898;2022-07-22T21:12:29;14.10;99.90
53146;DHT22;39042;53.150;5.898;2022-07-22T21:14:54;14.10;99.90
53146;DHT22;39042;53.150;5.898;2022-07-22T21:17:25;14.00;99.90
53146;DHT22;39042;53.150;5.898;2022-07-22T21:19:50;13.90;99.90
53146;DHT22;39042;53.150;5.898;2022-07-22T21:22:16;13.90;99.90
53146;DHT22;39042;53.150;5.898;2022-07-22T21:24:42;13.90;99.90
53146;DHT22;39042;53.150;5.898;2022-07-22T21:27:08;13.80;99.90
53146;DHT22;39042;53.150;5.898;2022-07-22T21:29:34;13.80;99.90
53146;DHT22;39042;53.150;5.898;2022-07-22T21:31:59;13.80;99.90
53146;DHT22;39042;53.150;5.898;2022-07-22T21:34:25;13.70;99.90
53146;DHT22;39042;53.150;5.898;2022-07-22T21:36:51;13.70;99.90
53146;DHT22;39042;53.150;5.898;2022-07-22T21:39:16;13.70;99.90
53146;DHT22;39042;53.150;5.898;2022-07-22T21:41:42;13.70;99.90
53146;DHT22;39042;53.150;5.898;2022-07-22T21:44:08;13.60;99.90
53146;DHT22;39042;53.150;5.898;2022-07-22T21:46:33;13.60;99.90
53146;DHT22;39042;53.150;5.898;2022-07-22T21:48:59;13.60;99.90
53146;DHT22;39042;53.150;5.898;2022-07-22T21:51:25;13.60;99.90
53146;DHT22;39042;53.150;5.898;2022-07-22T21:53:50;13.60;99.90
53146;DHT22;39042;53.150;5.898;2022-07-22T21:56:16;13.60;99.90
53146;DHT22;39042;53.150;5.898;2022-07-22T21:59:01;13.60;99.90
53146;DHT22;39042;53.150;5.898;2022-07-22T22:01:27;13.60;99.90
53146;DHT22;39042;53.150;5.898;2022-07-22T22:03:52;13.60;99.90
53146;DHT22;39042;53.150;5.898;2022-07-22T22:06:18;13.60;99.90
53146;DHT22;39042;53.150;5.898;2022-07-22T22:08:44;13.60;99.90
53146;DHT22;39042;53.150;5.898;2022-07-22T22:11:09;13.60;99.90
53146;DHT22;39042;53.150;5.898;2022-07-22T22:13:35;13.60;99.90
53146;DHT22;39042;53.150;5.898;2022-07-22T22:16:01;13.60;99.90
53146;DHT22;39042;53.150;5.898;2022-07-22T22:18:26;13.50;99.90
53146;DHT22;39042;53.150;5.898;2022-07-22T22:20:52;13.50;99.90
53146;DHT22;39042;53.150;5.898;2022-07-22T22:23:18;13.50;99.90
53146;DHT22;39042;53.150;5.898;2022-07-22T22:25:43;13.40;99.90
53146;DHT22;39042;53.150;5.898;2022-07-22T22:28:09;13.40;99.90
53146;DHT22;39042;53.150;5.898;2022-07-22T22:30:35;13.40;99.90
53146;DHT22;39042;53.150;5.898;2022-07-22T22:33:00;13.30;99.90
53146;DHT22;39042;53.150;5.898;2022-07-22T22:35:26;13.30;99.90
53146;DHT22;39042;53.150;5.898;2022-07-22T22:37:52;13.30;99.90
53146;DHT22;39042;53.150;5.898;2022-07-22T22:40:17;13.30;99.90
53146;DHT22;39042;53.150;5.898;2022-07-22T22:42:43;13.30;99.90
53146;DHT22;39042;53.150;5.898;2022-07-22T22:45:09;13.20;99.90
53146;DHT22;39042;53.150;5.898;2022-07-22T22:47:35;13.20;99.90
53146;DHT22;39042;53.150;5.898;2022-07-22T22:50:01;13.20;99.90
